LSZR/ACH METAR and TAF weather

Enter ICAO airport designator
Station Type Date Time Source
LSZR METAR 2021/09/24 02:50 UTC NOAA

LSZR 240250Z AUTO VRB02KT 8000 NCD 09/09 Q1021


Station Type Date Time Source
LSZR Decoded METAR 2021/09/24 02:50 UTC NOAA

Saint Gallen-Altenrhein, Switzerland (LSZR) 47-29-06N 009-33-43E
Sep 23, 2021 - 10:50 PM EDT / 2021.09.24 0250 UTC
Wind: Variable at 2 MPH (2 KT):0
Visibility: 4 mile(s):0
Temperature: 48 F (9 C)
Dew Point: 48 F (9 C)
Relative Humidity: 100%
Pressure (altimeter): 30.15 in. Hg (1021 hPa)
ob: LSZR 240250Z AUTO VRB02KT 8000 NCD 09/09 Q1021
cycle: 3

Station Type Date Time Source
LSZR TAF 2014/12/22 20:03 UTC NOAA

TAF
AMD LSZR 222054Z 2220/2224 CNL

Example: see airport list